createdAt,value
2022-12-23T00:01:29.553Z,4.30
2022-12-23T00:04:19.066Z,4.30
2022-12-23T00:07:08.626Z,4.30
2022-12-23T00:09:58.069Z,4.30
2022-12-23T00:13:06.283Z,4.40
2022-12-23T00:16:03.875Z,4.40
2022-12-23T00:18:55.356Z,4.40
2022-12-23T00:21:44.767Z,4.40
2022-12-23T00:24:34.132Z,4.30
2022-12-23T00:27:23.705Z,4.40
2022-12-23T00:30:14.854Z,4.40
2022-12-23T00:33:04.330Z,4.50
2022-12-23T00:35:54.241Z,4.40
2022-12-23T00:39:01.367Z,4.50
2022-12-23T00:42:07.763Z,4.60
2022-12-23T00:45:16.193Z,4.60
2022-12-23T00:48:24.882Z,4.60
2022-12-23T00:51:14.255Z,4.60
2022-12-23T00:54:03.821Z,4.60
2022-12-23T00:56:53.245Z,4.60
2022-12-23T00:59:42.801Z,4.60
2022-12-23T01:02:49.488Z,4.60
2022-12-23T01:05:40.563Z,4.70
2022-12-23T01:08:30.513Z,4.70
2022-12-23T01:11:19.981Z,4.70
2022-12-23T01:14:11.910Z,4.70
2022-12-23T01:17:02.069Z,4.80
2022-12-23T01:19:51.833Z,4.80
2022-12-23T01:22:42.742Z,4.90
2022-12-23T01:25:32.651Z,4.90
2022-12-23T01:28:22.058Z,4.80
2022-12-23T01:31:12.927Z,4.80
2022-12-23T01:34:02.571Z,4.80
2022-12-23T01:36:55.074Z,4.90
2022-12-23T01:39:46.203Z,4.90
2022-12-23T01:42:47.800Z,4.90
2022-12-23T01:45:37.156Z,4.80
2022-12-23T01:48:28.790Z,4.80
2022-12-23T01:51:21.714Z,4.80
2022-12-23T01:54:11.153Z,4.90
2022-12-23T01:57:02.309Z,4.90
2022-12-23T02:00:09.858Z,4.90
2022-12-23T02:03:16.997Z,4.90
2022-12-23T02:06:21.022Z,4.90
2022-12-23T02:09:20.495Z,4.90
2022-12-23T02:12:43.567Z,4.90
2022-12-23T02:15:57.656Z,5.00
2022-12-23T02:19:06.772Z,5.00
2022-12-23T02:22:13.640Z,5.10
2022-12-23T02:25:36.927Z,5.10
2022-12-23T02:28:50.936Z,5.10
2022-12-23T02:31:51.189Z,5.10
2022-12-23T02:34:45.105Z,5.10
2022-12-23T02:37:37.840Z,5.10
2022-12-23T02:40:35.848Z,5.10
2022-12-23T02:43:34.437Z,5.10
2022-12-23T02:46:30.393Z,5.10
2022-12-23T02:49:26.121Z,5.10
2022-12-23T02:52:17.734Z,5.10
2022-12-23T02:55:13.502Z,5.10
2022-12-23T02:58:06.686Z,5.20
2022-12-23T03:00:57.344Z,5.20
2022-12-23T03:03:49.198Z,5.20
2022-12-23T03:06:43.384Z,5.20
2022-12-23T03:09:49.173Z,5.20
2022-12-23T03:12:46.775Z,5.20
2022-12-23T03:15:43.031Z,5.30
2022-12-23T03:18:47.601Z,5.30
2022-12-23T03:21:44.561Z,5.30
2022-12-23T03:24:41.298Z,5.30
2022-12-23T03:27:37.505Z,5.40
2022-12-23T03:30:27.837Z,5.40
2022-12-23T03:33:20.357Z,5.40
2022-12-23T03:36:14.739Z,5.50
2022-12-23T03:39:10.620Z,5.40
2022-12-23T03:42:05.464Z,5.50
2022-12-23T03:45:36.392Z,5.50
2022-12-23T03:48:12.973Z,5.50
2022-12-23T03:51:06.671Z,5.60
2022-12-23T03:54:00.516Z,5.50
2022-12-23T03:56:59.498Z,5.50
2022-12-23T03:59:51.844Z,5.50
2022-12-23T04:02:47.692Z,5.50
2022-12-23T04:05:40.173Z,5.50
2022-12-23T04:08:32.850Z,5.50
2022-12-23T04:11:22.597Z,5.50
2022-12-23T04:14:18.170Z,5.60
2022-12-23T04:17:07.712Z,5.50
2022-12-23T04:19:58.055Z,5.60
2022-12-23T04:22:47.541Z,5.60
2022-12-23T04:25:37.098Z,5.50
2022-12-23T04:28:26.698Z,5.50
2022-12-23T04:31:17.775Z,5.40
2022-12-23T04:34:07.367Z,5.40
2022-12-23T04:36:56.747Z,5.40
2022-12-23T04:39:46.256Z,5.40
2022-12-23T04:42:35.905Z,5.40
2022-12-23T04:45:25.482Z,5.40
2022-12-23T04:48:16.548Z,5.40
2022-12-23T04:51:06.492Z,5.50
2022-12-23T04:53:55.953Z,5.50
2022-12-23T04:56:45.345Z,5.50
2022-12-23T04:59:35.551Z,5.60
2022-12-23T05:02:25.462Z,5.50
2022-12-23T05:05:16.594Z,5.50
2022-12-23T05:08:07.107Z,5.50
2022-12-23T05:10:56.887Z,5.60
2022-12-23T05:13:46.614Z,5.60
2022-12-23T05:16:36.095Z,5.70
2022-12-23T05:19:25.667Z,5.70
2022-12-23T05:22:16.588Z,5.50
2022-12-23T05:25:06.532Z,5.60
2022-12-23T05:27:55.946Z,5.50
2022-12-23T05:30:45.458Z,5.60
2022-12-23T05:33:35.863Z,5.60
2022-12-23T05:36:25.358Z,5.60
2022-12-23T05:39:16.575Z,5.60
2022-12-23T05:42:06.547Z,5.60
2022-12-23T05:44:55.992Z,5.60
2022-12-23T05:47:45.326Z,5.60
2022-12-23T05:50:35.325Z,5.70
2022-12-23T05:53:24.925Z,5.60
2022-12-23T05:56:15.766Z,5.60
2022-12-23T05:59:05.053Z,5.60
2022-12-23T06:01:54.841Z,5.60
2022-12-23T06:04:44.192Z,5.60
2022-12-23T06:07:33.663Z,5.60
2022-12-23T06:10:23.157Z,5.60
2022-12-23T06:13:14.158Z,5.60
2022-12-23T06:16:03.644Z,5.50
2022-12-23T06:18:56.954Z,5.40
2022-12-23T06:21:46.508Z,5.50
2022-12-23T06:24:35.902Z,5.50
2022-12-23T06:27:25.385Z,5.40
2022-12-23T06:30:16.933Z,5.40
2022-12-23T06:33:06.491Z,5.30
2022-12-23T06:35:55.957Z,5.30
2022-12-23T06:38:45.450Z,5.20
2022-12-23T06:41:34.932Z,5.20
2022-12-23T06:44:24.663Z,5.10
2022-12-23T06:47:15.712Z,5.10
2022-12-23T06:50:05.547Z,5.10
2022-12-23T06:52:55.047Z,5.10
2022-12-23T06:55:44.624Z,4.90
2022-12-23T06:58:34.304Z,4.60
2022-12-23T07:01:23.918Z,4.50
2022-12-23T07:04:14.879Z,4.40
2022-12-23T07:07:04.356Z,4.40
2022-12-23T07:09:53.766Z,4.40
2022-12-23T07:12:47.534Z,4.40
2022-12-23T07:15:41.157Z,4.40
2022-12-23T07:18:30.792Z,4.50
2022-12-23T07:21:29.065Z,4.50
2022-12-23T07:24:19.374Z,4.50
2022-12-23T07:27:08.940Z,4.40
2022-12-23T07:29:58.387Z,4.50
2022-12-23T07:32:49.954Z,4.60
2022-12-23T07:35:39.467Z,4.70
2022-12-23T07:38:31.214Z,4.90
2022-12-23T07:41:21.319Z,5.00
2022-12-23T07:44:10.697Z,5.00
2022-12-23T07:47:00.168Z,4.90
2022-12-23T07:49:49.476Z,5.00
2022-12-23T07:52:39.472Z,4.90
2022-12-23T07:55:30.558Z,5.00
2022-12-23T07:58:20.113Z,5.10
2022-12-23T08:01:09.610Z,5.10
2022-12-23T08:03:59.220Z,5.10
2022-12-23T08:06:48.667Z,5.10
2022-12-23T08:09:38.145Z,5.10
2022-12-23T08:12:29.313Z,5.10
2022-12-23T08:15:19.070Z,5.10
2022-12-23T08:18:08.381Z,5.20
2022-12-23T08:20:58.886Z,5.30
2022-12-23T08:23:48.998Z,5.40
2022-12-23T08:26:38.513Z,5.40
2022-12-23T08:29:34.348Z,5.50
2022-12-23T08:32:28.790Z,5.60
2022-12-23T08:35:18.386Z,5.60
2022-12-23T08:38:07.844Z,5.70
2022-12-23T08:40:57.510Z,5.70
2022-12-23T08:43:47.483Z,5.70
2022-12-23T08:46:39.127Z,5.60
2022-12-23T08:49:28.859Z,5.70
2022-12-23T08:52:18.477Z,5.70
2022-12-23T08:55:08.619Z,5.80
2022-12-23T08:57:57.970Z,5.70
2022-12-23T09:00:47.421Z,5.80
2022-12-23T09:03:39.785Z,5.80
2022-12-23T09:06:31.211Z,5.90
2022-12-23T09:09:20.588Z,5.90
2022-12-23T09:12:10.285Z,6.10
2022-12-23T09:14:59.859Z,6.20
2022-12-23T09:17:49.504Z,6.30
2022-12-23T09:20:40.889Z,6.30
2022-12-23T09:23:30.520Z,6.30
2022-12-23T09:26:22.100Z,6.40
2022-12-23T09:29:11.542Z,6.50
2022-12-23T09:32:01.613Z,6.50
2022-12-23T09:34:51.051Z,6.60
2022-12-23T09:37:41.945Z,6.70
2022-12-23T09:40:33.895Z,6.70
2022-12-23T09:43:32.806Z,6.70
2022-12-23T09:46:25.680Z,6.60
2022-12-23T09:49:17.978Z,6.50
2022-12-23T09:52:12.353Z,6.60
2022-12-23T09:55:03.498Z,6.60
2022-12-23T09:58:01.504Z,6.60
2022-12-23T10:01:02.291Z,6.50
2022-12-23T10:04:33.480Z,6.50
2022-12-23T10:07:35.100Z,6.60
2022-12-23T10:10:40.974Z,6.60
2022-12-23T10:13:35.936Z,6.70
2022-12-23T10:16:27.890Z,6.60
2022-12-23T10:19:22.177Z,6.50
2022-12-23T10:22:17.420Z,6.50
2022-12-23T10:25:14.549Z,6.20
2022-12-23T10:28:06.579Z,6.30
2022-12-23T10:31:30.977Z,6.30
2022-12-23T10:34:21.513Z,6.20
2022-12-23T10:37:19.232Z,6.30
2022-12-23T10:40:18.603Z,6.50
2022-12-23T10:43:23.137Z,6.60
2022-12-23T10:46:23.216Z,6.90
2022-12-23T10:49:23.217Z,7.10
2022-12-23T10:52:17.680Z,7.10
2022-12-23T10:55:07.980Z,7.00
2022-12-23T10:58:09.558Z,6.90
2022-12-23T11:01:08.464Z,6.80
2022-12-23T11:04:09.087Z,6.70
2022-12-23T11:07:26.360Z,6.80
2022-12-23T11:10:15.486Z,6.80
2022-12-23T11:13:05.433Z,7.00
2022-12-23T11:15:55.167Z,6.80
2022-12-23T11:18:58.332Z,6.80
2022-12-23T11:21:56.858Z,7.00
2022-12-23T11:24:46.351Z,7.20
2022-12-23T11:27:36.387Z,7.10
2022-12-23T11:30:26.660Z,7.10
2022-12-23T11:33:26.183Z,7.20
2022-12-23T11:36:24.143Z,7.20
2022-12-23T11:39:25.730Z,7.20
2022-12-23T11:42:19.410Z,7.10
2022-12-23T11:45:10.422Z,7.10
2022-12-23T11:47:59.984Z,6.80
2022-12-23T11:51:01.679Z,6.70
2022-12-23T11:54:02.146Z,6.70
2022-12-23T11:56:54.414Z,6.70
2022-12-23T11:59:46.511Z,6.70
2022-12-23T12:02:41.461Z,6.70
2022-12-23T12:05:36.654Z,6.50
2022-12-23T12:08:30.070Z,6.60
2022-12-23T12:11:26.530Z,6.70
2022-12-23T12:14:24.951Z,6.50
2022-12-23T12:17:21.872Z,6.40
2022-12-23T12:20:16.296Z,6.50
2022-12-23T12:23:11.264Z,6.40
2022-12-23T12:26:06.380Z,6.40
2022-12-23T12:29:04.521Z,6.50
2022-12-23T12:31:56.219Z,6.60
2022-12-23T12:34:54.789Z,6.50
2022-12-23T12:37:50.190Z,6.40
2022-12-23T12:40:46.749Z,6.20
2022-12-23T12:43:39.547Z,6.20
2022-12-23T12:46:35.826Z,6.20
2022-12-23T12:49:33.133Z,6.10
2022-12-23T12:52:25.796Z,6.10
2022-12-23T12:55:22.177Z,5.90
2022-12-23T12:58:20.477Z,6.10
2022-12-23T13:01:24.220Z,6.00
2022-12-23T13:04:59.193Z,6.10
2022-12-23T13:08:05.087Z,6.10
2022-12-23T13:10:58.773Z,6.00
2022-12-23T13:13:56.982Z,6.10
2022-12-23T13:16:56.508Z,6.10
2022-12-23T13:19:52.575Z,6.20
2022-12-23T13:22:45.166Z,6.20
2022-12-23T13:25:42.888Z,6.20
2022-12-23T13:28:40.187Z,6.10
2022-12-23T13:31:40.698Z,6.10
2022-12-23T13:34:41.251Z,6.00
2022-12-23T13:37:41.036Z,5.90
2022-12-23T13:40:39.779Z,5.90
2022-12-23T13:43:37.797Z,5.90
2022-12-23T13:46:39.695Z,5.90
2022-12-23T13:49:37.551Z,5.80
2022-12-23T13:52:39.765Z,5.80
2022-12-23T13:55:49.642Z,5.80
2022-12-23T13:58:42.404Z,5.70
2022-12-23T14:01:38.025Z,5.60
2022-12-23T14:04:35.877Z,5.60
2022-12-23T14:07:25.874Z,5.60
2022-12-23T14:10:24.313Z,5.50
2022-12-23T14:13:20.360Z,5.50
2022-12-23T14:16:26.593Z,5.50
2022-12-23T14:19:38.695Z,5.40
2022-12-23T14:22:55.403Z,5.40
2022-12-23T14:26:26.165Z,5.50
2022-12-23T14:29:47.700Z,5.40
2022-12-23T14:32:48.043Z,5.20
2022-12-23T14:35:56.532Z,5.30
2022-12-23T14:39:26.837Z,5.30
2022-12-23T14:42:36.011Z,5.30
2022-12-23T14:45:43.991Z,5.30
2022-12-23T14:49:40.656Z,5.30
2022-12-23T14:52:51.241Z,5.30
2022-12-23T14:55:48.504Z,5.40
2022-12-23T14:59:06.384Z,5.50
2022-12-23T15:02:00.948Z,5.50
2022-12-23T15:04:54.896Z,5.50
2022-12-23T15:07:47.931Z,5.50
2022-12-23T15:10:39.981Z,5.60
2022-12-23T15:13:31.788Z,5.50
2022-12-23T15:16:21.512Z,5.50
2022-12-23T15:19:23.948Z,5.50
2022-12-23T15:22:22.620Z,5.50
2022-12-23T15:25:24.087Z,5.40
2022-12-23T15:28:19.832Z,5.20
2022-12-23T15:31:26.945Z,5.20
2022-12-23T15:34:24.983Z,5.20
2022-12-23T15:37:18.719Z,5.10
2022-12-23T15:40:24.029Z,5.10
2022-12-23T15:43:22.625Z,5.10
2022-12-23T15:46:23.423Z,5.10
2022-12-23T15:49:24.666Z,5.10
2022-12-23T15:52:20.127Z,5.10
2022-12-23T15:55:15.505Z,5.20
2022-12-23T15:58:06.058Z,5.10
2022-12-23T16:00:58.262Z,5.10
2022-12-23T16:03:53.244Z,5.10
2022-12-23T16:06:51.542Z,5.00
2022-12-23T16:09:40.892Z,5.00
2022-12-23T16:12:32.564Z,4.90
2022-12-23T16:15:24.338Z,4.90
2022-12-23T16:18:15.244Z,4.90
2022-12-23T16:21:06.935Z,4.90
2022-12-23T16:24:01.002Z,4.90
2022-12-23T16:26:50.530Z,4.90
2022-12-23T16:29:41.979Z,4.80
2022-12-23T16:32:31.603Z,4.70
2022-12-23T16:35:40.051Z,4.70
2022-12-23T16:38:31.735Z,4.70
2022-12-23T16:41:22.747Z,4.70
2022-12-23T16:44:12.448Z,4.80
2022-12-23T16:47:08.852Z,4.80
2022-12-23T16:49:58.376Z,4.90
2022-12-23T16:52:47.826Z,4.90
2022-12-23T16:55:37.905Z,4.90
2022-12-23T16:58:28.842Z,5.00
2022-12-23T17:01:28.991Z,4.90
2022-12-23T17:04:18.382Z,4.80
2022-12-23T17:07:10.925Z,4.80
2022-12-23T17:10:00.496Z,4.70
2022-12-23T17:12:52.125Z,4.60
2022-12-23T17:15:43.478Z,4.50
2022-12-23T17:18:33.567Z,4.50
2022-12-23T17:21:26.708Z,4.50
2022-12-23T17:24:23.140Z,4.50
2022-12-23T17:27:16.005Z,4.40
2022-12-23T17:30:08.230Z,4.40
2022-12-23T17:33:00.866Z,4.30
2022-12-23T17:35:50.363Z,4.20
2022-12-23T17:38:39.948Z,4.10
2022-12-23T17:41:32.026Z,4.10
2022-12-23T17:44:21.725Z,4.00
2022-12-23T17:47:16.413Z,4.00
2022-12-23T17:50:08.943Z,4.00
2022-12-23T17:52:58.710Z,4.00
2022-12-23T17:55:48.673Z,4.00
2022-12-23T17:58:38.147Z,4.00
2022-12-23T18:01:29.424Z,4.00
2022-12-23T18:04:18.934Z,4.00
2022-12-23T18:07:14.033Z,4.10
2022-12-23T18:10:03.555Z,4.20
2022-12-23T18:12:56.917Z,4.20
2022-12-23T18:15:47.332Z,4.10
2022-12-23T18:18:45.831Z,4.10
2022-12-23T18:21:36.168Z,4.10
2022-12-23T18:24:27.696Z,4.10
2022-12-23T18:27:18.147Z,4.20
2022-12-23T18:30:08.938Z,4.10
2022-12-23T18:32:58.707Z,4.10
2022-12-23T18:35:49.579Z,4.10
2022-12-23T18:38:39.093Z,4.10
2022-12-23T18:41:30.186Z,4.20
2022-12-23T18:44:21.111Z,4.20
2022-12-23T18:47:11.406Z,4.30
2022-12-23T18:50:00.992Z,4.10
2022-12-23T18:52:50.570Z,4.20
2022-12-23T18:55:40.139Z,4.30
2022-12-23T18:58:31.152Z,4.30
2022-12-23T19:01:21.167Z,4.30
2022-12-23T19:04:10.953Z,4.40
2022-12-23T19:07:00.580Z,4.40
2022-12-23T19:09:50.379Z,4.50
2022-12-23T19:12:39.954Z,4.60
2022-12-23T19:15:31.311Z,4.60
2022-12-23T19:18:22.727Z,4.50
2022-12-23T19:21:12.916Z,4.40
2022-12-23T19:24:02.319Z,4.30
2022-12-23T19:26:51.937Z,4.20
2022-12-23T19:29:42.408Z,4.20
2022-12-23T19:32:33.471Z,4.20
2022-12-23T19:35:23.130Z,4.20
2022-12-23T19:38:12.857Z,4.20
2022-12-23T19:41:02.423Z,4.20
2022-12-23T19:43:52.120Z,4.30
2022-12-23T19:46:41.885Z,4.40
2022-12-23T19:49:34.018Z,4.40
2022-12-23T19:52:23.975Z,4.40
2022-12-23T19:55:13.784Z,4.50
2022-12-23T19:58:03.554Z,4.50
2022-12-23T20:00:53.789Z,4.50
2022-12-23T20:03:44.762Z,4.50
2022-12-23T20:06:38.726Z,4.50
2022-12-23T20:09:28.785Z,4.50
2022-12-23T20:12:18.748Z,4.50
2022-12-23T20:15:09.602Z,4.40
2022-12-23T20:18:00.222Z,4.30
2022-12-23T20:20:50.742Z,4.30
2022-12-23T20:23:42.463Z,4.20
2022-12-23T20:26:32.622Z,4.20
2022-12-23T20:29:22.821Z,4.10
2022-12-23T20:32:13.075Z,4.00
2022-12-23T20:35:02.624Z,4.10
2022-12-23T20:37:52.560Z,4.20
2022-12-23T20:40:44.277Z,4.30
2022-12-23T20:43:35.371Z,4.20
2022-12-23T20:46:24.982Z,4.20
2022-12-23T20:49:14.504Z,4.20
2022-12-23T20:52:04.012Z,4.20
2022-12-23T20:54:53.654Z,4.20
2022-12-23T20:57:46.575Z,4.20
2022-12-23T21:00:36.061Z,4.20
2022-12-23T21:03:25.687Z,4.20
2022-12-23T21:06:15.323Z,4.30
2022-12-23T21:09:07.404Z,4.40
2022-12-23T21:11:56.983Z,4.40
2022-12-23T21:14:48.010Z,4.50
2022-12-23T21:17:37.516Z,4.50
2022-12-23T21:20:27.254Z,4.50
2022-12-23T21:23:16.974Z,4.50
2022-12-23T21:26:11.451Z,4.50
2022-12-23T21:29:02.677Z,4.50
2022-12-23T21:31:53.790Z,4.40
2022-12-23T21:34:43.381Z,4.30
2022-12-23T21:37:33.823Z,4.30
2022-12-23T21:40:23.395Z,4.30
2022-12-23T21:43:12.923Z,4.30
2022-12-23T21:46:04.167Z,4.30
2022-12-23T21:48:56.665Z,4.30
2022-12-23T21:51:46.277Z,4.30
2022-12-23T21:54:35.939Z,4.30
2022-12-23T21:57:25.565Z,4.20
2022-12-23T22:00:15.614Z,4.30
2022-12-23T22:03:05.222Z,4.30
2022-12-23T22:05:56.200Z,4.30
2022-12-23T22:08:45.951Z,4.30
2022-12-23T22:11:36.779Z,4.40
2022-12-23T22:14:26.302Z,4.30
2022-12-23T22:17:15.912Z,4.30
2022-12-23T22:20:05.883Z,4.30
2022-12-23T22:22:57.100Z,4.30
2022-12-23T22:25:54.978Z,4.30
2022-12-23T22:28:44.993Z,4.20
2022-12-23T22:31:38.422Z,4.30
2022-12-23T22:34:28.157Z,4.20
2022-12-23T22:37:17.915Z,4.20
2022-12-23T22:40:10.737Z,4.30
2022-12-23T22:43:00.299Z,4.40
2022-12-23T22:45:56.542Z,4.50
2022-12-23T22:48:46.327Z,4.60
2022-12-23T22:51:35.902Z,4.50
2022-12-23T22:54:25.583Z,4.50
2022-12-23T22:57:16.676Z,4.40
2022-12-23T23:00:12.204Z,4.40
2022-12-23T23:03:02.275Z,4.30
2022-12-23T23:05:59.490Z,4.20
2022-12-23T23:08:49.103Z,4.10
2022-12-23T23:11:38.516Z,4.20
2022-12-23T23:14:49.778Z,4.30
2022-12-23T23:17:39.193Z,4.30
2022-12-23T23:20:28.749Z,4.30
2022-12-23T23:23:18.431Z,4.20
2022-12-23T23:26:09.366Z,4.20
2022-12-23T23:28:59.051Z,4.30
2022-12-23T23:31:50.127Z,4.20
2022-12-23T23:34:40.952Z,4.10
2022-12-23T23:37:30.376Z,4.10
2022-12-23T23:40:20.321Z,4.10
2022-12-23T23:43:09.842Z,4.00
2022-12-23T23:46:05.291Z,4.10
2022-12-23T23:48:56.269Z,4.10
2022-12-23T23:51:46.007Z,4.10
2022-12-23T23:54:35.952Z,4.20
2022-12-23T23:57:26.884Z,4.20
